Time;durP1;ratioP1;P1;durP2;ratioP2;P2;SDS_P1;SDS_P2;PMS_P1;PMS_P2;Temp;Humidity;BMP_temperature;BMP_pressure;BME280_temperature;BME280_humidity;BME280_pressure;Samples;Min_cycle;Max_cycle;Signal;HPM_P1;HPM_P2
2021/12/18 00:01:27;;;;;;;3.03;1.20;;;7.90;99.90;;;;;;5115940;28;20066;-71
2021/12/18 00:03:53;;;;;;;4.22;1.10;;;7.80;99.90;;;;;;5098756;28;20464;-71
2021/12/18 00:06:19;;;;;;;1.83;1.00;;;7.50;99.90;;;;;;5097722;28;20044;-71
2021/12/18 00:08:46;;;;;;;6.00;1.30;;;7.50;99.90;;;;;;5098231;28;20364;-71
2021/12/18 00:11:12;;;;;;;5.55;1.10;;;7.50;99.90;;;;;;5080962;28;20083;-71
2021/12/18 00:13:38;;;;;;;2.30;1.15;;;7.50;99.90;;;;;;5115939;28;20485;-71
2021/12/18 00:16:05;;;;;;;1.60;0.75;;;7.50;99.90;;;;;;5115402;28;20055;-71
2021/12/18 00:18:31;;;;;;;1.55;0.70;;;7.50;99.90;;;;;;5115668;28;20054;-71
2021/12/18 00:21:00;;;;;;;1.98;0.70;;;7.70;99.90;;;;;;5098069;28;20470;-71
2021/12/18 00:23:26;;;;;;;1.63;0.55;;;7.90;99.90;;;;;;5115555;28;20040;-71
2021/12/18 00:25:53;;;;;;;1.58;0.65;;;7.40;99.90;;;;;;5097077;28;20185;-71
2021/12/18 00:28:19;;;;;;;0.98;0.45;;;7.80;99.90;;;;;;5116330;28;20408;-71
2021/12/18 00:30:44;;;;;;;1.38;0.50;;;7.60;99.90;;;;;;5097433;28;20054;-71
2021/12/18 00:33:10;;;;;;;1.10;0.40;;;7.50;99.90;;;;;;5115411;28;20044;-71
2021/12/18 00:35:36;;;;;;;1.05;0.40;;;7.50;99.90;;;;;;5097708;28;20048;-71
2021/12/18 00:38:04;;;;;;;1.88;0.77;;;7.40;99.90;;;;;;5097532;28;20104;-71
2021/12/18 00:40:43;;;;;;;1.75;0.60;;;7.50;99.90;;;;;;5116019;28;20379;-71
2021/12/18 00:43:27;;;;;;;2.28;0.60;;;7.40;99.90;;;;;;5098974;28;20058;-71
2021/12/18 00:45:53;;;;;;;1.35;0.70;;;7.70;99.90;;;;;;5115281;28;20421;-71
2021/12/18 00:48:19;;;;;;;2.42;0.60;;;7.40;99.90;;;;;;5115189;28;20097;-71
2021/12/18 00:50:45;;;;;;;2.30;0.57;;;7.40;99.90;;;;;;5115560;28;20088;-71
2021/12/18 00:53:11;;;;;;;2.90;0.57;;;7.50;99.90;;;;;;5115012;28;20051;-71
2021/12/18 00:55:37;;;;;;;2.17;0.70;;;7.40;99.90;;;;;;5114653;28;20130;-71
2021/12/18 00:58:04;;;;;;;2.75;0.80;;;7.80;99.90;;;;;;5115462;28;20104;-71
2021/12/18 01:00:30;;;;;;;2.47;0.70;;;7.40;99.90;;;;;;5114821;28;20039;-71
2021/12/18 01:03:00;;;;;;;3.28;0.80;;;7.50;99.90;;;;;;5080148;28;20377;-71
2021/12/18 01:05:28;;;;;;;2.67;0.60;;;7.50;99.90;;;;;;5114849;28;20131;-71
2021/12/18 01:07:58;;;;;;;2.75;0.77;;;7.40;99.90;;;;;;5097443;28;20051;-71
2021/12/18 01:11:24;;;;;;;2.95;0.70;;;7.40;99.90;;;;;;5096496;28;20044;-71
2021/12/18 01:13:16;;;;;;;2.97;0.93;;;7.40;99.90;;;;;;5100132;28;20051;-71
2021/12/18 01:15:48;;;;;;;3.28;1.05;;;7.60;99.90;;;;;;5114905;28;20051;-71
2021/12/18 01:23:43;;;;;;;3.65;1.23;;;7.40;99.90;;;;;;5114782;28;20053;-71
2021/12/18 01:26:09;;;;;;;5.75;0.98;;;7.40;99.90;;;;;;5096201;28;20043;-71
2021/12/18 01:28:34;;;;;;;2.40;0.73;;;7.70;99.90;;;;;;5114412;28;20131;-71
2021/12/18 01:31:01;;;;;;;5.10;0.90;;;6.40;99.90;;;;;;5114904;28;20157;-71
2021/12/18 01:33:27;;;;;;;3.78;0.90;;;7.60;99.90;;;;;;5114393;28;20047;-71
2021/12/18 01:35:53;;;;;;;3.75;0.80;;;7.40;99.90;;;;;;5115058;28;20046;-71
2021/12/18 01:38:22;;;;;;;3.72;1.00;;;7.50;99.90;;;;;;5114241;28;20093;-71
2021/12/18 01:40:48;;;;;;;1.90;0.70;;;7.50;99.90;;;;;;5114118;28;20188;-71
2021/12/18 01:44:15;;;;;;;2.58;0.90;;;7.50;99.90;;;;;;5096064;28;20066;-71
2021/12/18 01:51:48;;;;;;;1.98;0.80;;;7.70;99.90;;;;;;5114088;28;20051;-71
2021/12/18 01:54:11;;;;;;;1.77;0.80;;;7.40;99.90;;;;;;5113400;28;20451;-71
2021/12/18 01:56:37;;;;;;;1.85;0.70;;;7.40;99.90;;;;;;5113717;28;20044;-71
2021/12/18 01:59:03;;;;;;;1.85;0.70;;;7.30;99.90;;;;;;5113927;28;20055;-71
2021/12/18 02:01:29;;;;;;;3.10;0.90;;;7.40;99.90;;;;;;5114053;28;20047;-71
2021/12/18 02:03:54;;;;;;;1.55;0.60;;;7.40;99.90;;;;;;5095780;28;20498;-71
2021/12/18 02:06:22;;;;;;;1.92;0.70;;;7.40;99.90;;;;;;5096614;28;20471;-71
2021/12/18 02:08:47;;;;;;;2.25;0.70;;;7.30;99.90;;;;;;5121532;28;20391;-71
2021/12/18 02:21:41;;;;;;;1.25;0.50;;;7.40;99.90;;;;;;5121084;28;20288;-71
2021/12/18 02:24:08;;;;;;;1.00;0.38;;;7.20;99.90;;;;;;5120624;28;20126;-71
2021/12/18 02:26:34;;;;;;;1.35;0.50;;;7.50;99.90;;;;;;5102492;28;20055;-71
2021/12/18 02:29:03;;;;;;;3.40;0.70;;;7.30;99.90;;;;;;5120529;28;20043;-72
2021/12/18 02:31:29;;;;;;;1.85;0.75;;;7.40;99.90;;;;;;5120373;28;20043;-71
2021/12/18 02:33:56;;;;;;;1.50;0.50;;;7.50;99.90;;;;;;5102507;28;20047;-71
2021/12/18 02:36:24;;;;;;;1.63;0.60;;;7.40;99.90;;;;;;5103251;28;20054;-71
2021/12/18 02:41:36;;;;;;;2.05;0.70;;;7.40;99.90;;;;;;5120342;28;20056;-71
2021/12/18 02:44:07;;;;;;;2.45;0.80;;;7.40;99.90;;;;;;5120408;28;20059;-71
2021/12/18 02:46:33;;;;;;;2.13;0.60;;;7.40;99.90;;;;;;5120403;28;20487;-71
2021/12/18 02:49:24;;;;;;;2.10;0.75;;;7.50;99.90;;;;;;5120841;28;20126;-71
2021/12/18 02:51:50;;;;;;;3.85;0.90;;;7.50;99.90;;;;;;5102206;28;20039;-71
2021/12/18 02:54:16;;;;;;;3.40;0.80;;;7.50;99.90;;;;;;5121146;28;20040;-71
2021/12/18 02:56:42;;;;;;;4.07;0.88;;;8.20;99.90;;;;;;5120024;28;20550;-71
2021/12/18 02:59:09;;;;;;;8.02;0.90;;;7.70;99.90;;;;;;5120192;28;20097;-71
2021/12/18 03:01:37;;;;;;;3.22;0.75;;;7.60;99.90;;;;;;5120031;28;20092;-72
2021/12/18 03:04:14;;;;;;;4.30;0.70;;;7.50;99.90;;;;;;5120161;28;20054;-71
2021/12/18 03:06:46;;;;;;;5.00;1.13;;;7.60;99.90;;;;;;5121017;28;20052;-71
2021/12/18 03:09:54;;;;;;;6.57;0.73;;;7.40;99.90;;;;;;5120181;28;20126;-71
2021/12/18 03:19:11;;;;;;;2.88;0.70;;;7.40;99.90;;;;;;5120087;28;20135;-71
2021/12/18 03:23:47;;;;;;;1.77;0.52;;;7.30;99.90;;;;;;5116882;28;20134;-71
2021/12/18 03:26:02;;;;;;;1.80;0.70;;;7.30;99.90;;;;;;5112033;28;20063;-71
2021/12/18 03:28:29;;;;;;;2.30;0.68;;;7.10;99.90;;;;;;5116602;28;20125;-71
2021/12/18 03:30:55;;;;;;;3.85;0.98;;;7.50;99.90;;;;;;5098486;28;20043;-71
2021/12/18 03:33:23;;;;;;;2.47;0.77;;;7.30;99.90;;;;;;5116719;28;20043;-71
2021/12/18 03:35:49;;;;;;;4.07;0.90;;;7.60;99.90;;;;;;5116691;28;20126;-71
2021/12/18 03:38:14;;;;;;;2.25;0.70;;;7.40;99.90;;;;;;5116689;28;20102;-70
2021/12/18 03:40:41;;;;;;;3.50;0.80;;;7.40;99.90;;;;;;5116636;28;20047;-71
2021/12/18 03:43:07;;;;;;;2.72;0.50;;;7.20;99.90;;;;;;5116522;28;20044;-70
2021/12/18 03:45:33;;;;;;;3.28;0.70;;;8.40;99.90;;;;;;5098697;28;20092;-70
2021/12/18 03:47:58;;;;;;;3.05;0.50;;;7.30;99.90;;;;;;5116449;28;20550;-70
2021/12/18 03:50:24;;;;;;;3.08;0.70;;;7.60;99.90;;;;;;5116694;28;20039;-70
2021/12/18 03:52:50;;;;;;;3.13;0.55;;;8.00;99.90;;;;;;5117175;28;20043;-70
2021/12/18 03:55:17;;;;;;;3.33;0.50;;;7.40;99.90;;;;;;5116281;28;20047;-70
2021/12/18 03:57:43;;;;;;;3.03;0.63;;;7.30;99.90;;;;;;5116006;28;20407;-70
2021/12/18 04:00:11;;;;;;;4.07;0.70;;;7.30;99.90;;;;;;5116099;28;20047;-70
2021/12/18 04:02:37;;;;;;;2.25;0.50;;;7.20;99.90;;;;;;5116053;28;20131;-70
2021/12/18 04:05:03;;;;;;;2.30;0.50;;;7.30;99.90;;;;;;5116233;28;20138;-70
2021/12/18 04:07:29;;;;;;;1.95;0.52;;;7.30;99.90;;;;;;5098659;28;20472;-70
2021/12/18 04:09:54;;;;;;;2.08;0.55;;;7.30;99.90;;;;;;5115929;28;20126;-70
2021/12/18 04:12:20;;;;;;;2.40;0.60;;;7.20;99.90;;;;;;5080980;28;20126;-70
2021/12/18 04:14:46;;;;;;;8.30;0.70;;;8.00;99.90;;;;;;5117104;28;20054;-70
2021/12/18 04:17:12;;;;;;;3.08;0.60;;;7.30;99.90;;;;;;5116130;28;20064;-70
2021/12/18 04:19:37;;;;;;;2.22;0.52;;;7.20;99.90;;;;;;5097899;28;20200;-70
2021/12/18 04:22:03;;;;;;;1.15;0.43;;;7.30;99.90;;;;;;5098192;28;20079;-70
2021/12/18 04:24:29;;;;;;;2.85;0.60;;;7.30;99.90;;;;;;5115701;28;20075;-70
2021/12/18 04:26:55;;;;;;;2.28;0.52;;;7.40;99.90;;;;;;5115468;28;20039;-70
2021/12/18 04:29:21;;;;;;;3.80;0.50;;;7.50;99.90;;;;;;5115263;28;20051;-70
2021/12/18 04:31:47;;;;;;;3.88;0.60;;;7.30;99.90;;;;;;5097495;28;20044;-70
2021/12/18 04:34:12;;;;;;;2.70;0.60;;;7.50;99.90;;;;;;5097693;28;20047;-70
2021/12/18 04:36:38;;;;;;;2.78;0.52;;;7.40;99.90;;;;;;5115789;28;20044;-70
2021/12/18 04:39:04;;;;;;;5.85;0.50;;;7.60;99.90;;;;;;5081402;28;20087;-70
2021/12/18 04:41:43;;;;;;;3.90;0.45;;;7.30;99.90;;;;;;5115340;28;20118;-70
2021/12/18 04:44:09;;;;;;;4.00;0.60;;;7.30;99.90;;;;;;5116055;28;20047;-70
2021/12/18 04:46:35;;;;;;;5.63;0.55;;;7.30;99.90;;;;;;5115835;28;20040;-70
2021/12/18 04:49:01;;;;;;;7.32;0.77;;;7.30;99.90;;;;;;5115281;28;20100;-70
2021/12/18 04:51:27;;;;;;;3.75;0.70;;;7.30;99.90;;;;;;5080417;28;20057;-70
2021/12/18 04:53:52;;;;;;;2.33;0.65;;;7.30;99.90;;;;;;5115227;28;20043;-70
2021/12/18 04:56:18;;;;;;;3.70;0.70;;;7.50;99.90;;;;;;5115480;28;20429;-70
2021/12/18 04:58:44;;;;;;;5.40;0.77;;;7.50;99.90;;;;;;5115126;28;20142;-70
2021/12/18 05:01:09;;;;;;;2.28;0.73;;;7.40;99.90;;;;;;5114948;28;20040;-70
2021/12/18 05:03:38;;;;;;;4.20;0.85;;;7.40;99.90;;;;;;5097129;28;20059;-70
2021/12/18 05:06:04;;;;;;;4.20;0.75;;;7.50;99.90;;;;;;5114944;28;20164;-70
2021/12/18 05:08:29;;;;;;;6.90;1.33;;;7.40;99.90;;;;;;5115194;28;20123;-70
2021/12/18 05:10:55;;;;;;;4.63;0.80;;;7.40;99.90;;;;;;5114822;28;20044;-70
2021/12/18 05:13:21;;;;;;;2.45;0.82;;;7.50;99.90;;;;;;5114819;28;20043;-70
2021/12/18 05:15:47;;;;;;;3.13;0.68;;;7.40;99.90;;;;;;5114509;28;20059;-70
2021/12/18 05:18:13;;;;;;;5.45;0.98;;;7.70;99.90;;;;;;5115275;28;20043;-70
2021/12/18 05:20:38;;;;;;;2.85;0.70;;;7.50;99.90;;;;;;5063873;28;20048;-70
2021/12/18 05:23:04;;;;;;;2.33;1.02;;;7.70;99.90;;;;;;5097092;28;20044;-70
2021/12/18 05:25:30;;;;;;;2.50;0.85;;;7.40;99.90;;;;;;5114569;28;20043;-70
2021/12/18 05:27:56;;;;;;;6.13;0.82;;;7.40;99.90;;;;;;5096424;28;20134;-70
2021/12/18 05:30:21;;;;;;;1.73;0.85;;;7.60;99.90;;;;;;5096483;28;20444;-70
2021/12/18 05:32:47;;;;;;;2.05;0.68;;;7.50;99.90;;;;;;5114494;28;20051;-70
2021/12/18 05:35:15;;;;;;;1.85;0.70;;;7.50;99.90;;;;;;5114426;28;20140;-70
2021/12/18 05:37:53;;;;;;;1.50;0.65;;;7.50;99.90;;;;;;5096985;28;20044;-70
2021/12/18 05:40:22;;;;;;;1.67;0.80;;;7.50;99.90;;;;;;5114529;28;20052;-70
2021/12/18 05:42:49;;;;;;;2.85;0.70;;;7.50;99.90;;;;;;5113631;28;20130;-70
2021/12/18 05:45:16;;;;;;;1.67;0.60;;;7.80;99.90;;;;;;5096381;28;20552;-70
2021/12/18 05:47:43;;;;;;;1.05;0.50;;;7.70;99.90;;;;;;5115093;28;20048;-70
2021/12/18 05:50:11;;;;;;;1.88;0.60;;;7.50;99.90;;;;;;5114200;28;20055;-70
2021/12/18 05:52:38;;;;;;;2.30;0.60;;;7.60;99.90;;;;;;5096220;28;20048;-70
2021/12/18 05:55:05;;;;;;;1.75;0.70;;;7.60;99.90;;;;;;5114131;28;20048;-70
2021/12/18 05:57:30;;;;;;;1.33;0.50;;;7.60;99.90;;;;;;5113915;28;20043;-70
2021/12/18 05:59:56;;;;;;;2.00;0.70;;;8.30;99.90;;;;;;5114465;28;20173;-70
2021/12/18 06:02:22;;;;;;;2.13;0.63;;;7.60;99.90;;;;;;5095651;28;20047;-70
2021/12/18 06:04:48;;;;;;;4.57;0.70;;;7.60;99.90;;;;;;5114585;28;20130;-71
2021/12/18 06:07:29;;;;;;;2.38;0.95;;;7.60;99.90;;;;;;5115182;28;20043;-71
2021/12/18 06:09:56;;;;;;;2.28;0.70;;;7.60;99.90;;;;;;5095881;28;20063;-71
2021/12/18 06:12:22;;;;;;;2.47;0.90;;;7.60;99.90;;;;;;5113986;28;20047;-71
2021/12/18 06:14:48;;;;;;;2.58;0.95;;;7.60;99.90;;;;;;5114089;28;20083;-70
2021/12/18 06:17:14;;;;;;;2.67;1.05;;;7.60;99.90;;;;;;5114232;28;20104;-70
2021/12/18 06:19:39;;;;;;;2.92;0.80;;;7.50;99.90;;;;;;5113945;28;20094;-69
2021/12/18 06:22:05;;;;;;;3.85;1.13;;;7.60;99.90;;;;;;5114449;28;20075;-70
2021/12/18 06:24:31;;;;;;;3.58;1.15;;;7.70;99.90;;;;;;5095729;28;20051;-70
2021/12/18 06:26:57;;;;;;;5.18;1.20;;;7.70;99.90;;;;;;5114132;28;20140;-70
2021/12/18 06:29:23;;;;;;;5.13;1.50;;;7.70;99.90;;;;;;5114431;28;20075;-70
2021/12/18 06:31:49;;;;;;;3.47;1.45;;;7.80;99.90;;;;;;5113696;28;20043;-70
2021/12/18 06:34:16;;;;;;;3.85;1.08;;;7.70;99.90;;;;;;5113878;28;20044;-72
2021/12/18 06:36:42;;;;;;;4.22;1.55;;;7.70;99.90;;;;;;5095605;28;20403;-71
2021/12/18 06:39:07;;;;;;;5.70;1.38;;;7.70;99.90;;;;;;5114597;28;20050;-70
2021/12/18 06:41:33;;;;;;;4.18;1.25;;;8.00;99.90;;;;;;5113623;28;20529;-70
2021/12/18 06:43:59;;;;;;;4.50;1.40;;;7.70;99.90;;;;;;5113770;28;20078;-70
2021/12/18 06:46:24;;;;;;;6.60;1.70;;;7.80;99.90;;;;;;5113807;28;20048;-70
2021/12/18 06:48:50;;;;;;;4.80;1.63;;;7.80;99.90;;;;;;5113694;28;20054;-71
2021/12/18 06:51:17;;;;;;;6.93;1.85;;;7.70;99.90;;;;;;5114438;28;20135;-70
2021/12/18 06:53:43;;;;;;;4.57;1.95;;;7.70;99.90;;;;;;5115908;28;20051;-70
2021/12/18 06:56:08;;;;;;;6.47;2.35;;;7.80;99.90;;;;;;5117634;28;20056;-70
2021/12/18 06:58:34;;;;;;;4.80;2.15;;;7.70;99.90;;;;;;5099303;28;20050;-70
2021/12/18 07:01:00;;;;;;;7.70;2.05;;;7.80;99.90;;;;;;5117739;28;20047;-70
2021/12/18 07:03:26;;;;;;;4.45;1.65;;;8.30;99.90;;;;;;5099143;28;20075;-70
2021/12/18 07:05:51;;;;;;;6.60;2.03;;;7.70;99.90;;;;;;5117374;28;20078;-70
2021/12/18 07:08:17;;;;;;;4.18;1.48;;;7.80;99.90;;;;;;5117345;28;20044;-70
2021/12/18 07:10:44;;;;;;;5.55;2.05;;;7.80;99.90;;;;;;5117727;28;20040;-70
2021/12/18 07:13:10;;;;;;;6.15;2.08;;;7.90;99.90;;;;;;5117221;28;20047;-70
2021/12/18 07:15:37;;;;;;;8.90;2.10;;;7.80;99.90;;;;;;5117437;28;20062;-70
2021/12/18 07:18:03;;;;;;;3.45;1.40;;;7.90;99.90;;;;;;5117135;28;20087;-70
2021/12/18 07:20:29;;;;;;;6.07;1.52;;;7.90;99.90;;;;;;5116902;28;20044;-70
2021/12/18 07:22:55;;;;;;;5.10;1.65;;;7.90;99.90;;;;;;5117279;28;20079;-70
2021/12/18 07:25:21;;;;;;;4.50;1.25;;;8.20;99.90;;;;;;5116963;28;20467;-70
2021/12/18 07:27:47;;;;;;;2.78;0.85;;;8.00;99.90;;;;;;5081708;28;20048;-70
2021/12/18 07:30:15;;;;;;;4.25;0.77;;;8.00;99.90;;;;;;5116886;28;20046;-70
2021/12/18 07:32:41;;;;;;;2.78;0.70;;;8.00;99.90;;;;;;5116626;28;20047;-70
2021/12/18 07:35:08;;;;;;;3.72;0.90;;;8.00;99.90;;;;;;5117238;28;20122;-70
2021/12/18 07:37:35;;;;;;;2.03;1.13;;;8.00;99.90;;;;;;5081951;28;20074;-70
2021/12/18 07:40:01;;;;;;;2.30;0.98;;;8.30;99.90;;;;;;5098756;28;20092;-70
2021/12/18 07:42:27;;;;;;;2.85;1.15;;;8.10;99.90;;;;;;5098312;28;20051;-72
2021/12/18 07:44:53;;;;;;;3.95;1.88;;;8.20;99.90;;;;;;5116724;28;20518;-70
2021/12/18 07:47:18;;;;;;;5.55;2.40;;;8.10;99.90;;;;;;5081952;28;20044;-69
2021/12/18 07:49:45;;;;;;;5.15;1.27;;;8.10;99.90;;;;;;5099279;28;20132;-69
2021/12/18 07:52:12;;;;;;;2.42;0.85;;;8.20;99.90;;;;;;5081535;28;20389;-70
2021/12/18 07:54:38;;;;;;;1.65;0.65;;;8.20;99.90;;;;;;5116322;28;20119;-69
2021/12/18 07:57:04;;;;;;;4.22;0.98;;;8.30;99.90;;;;;;5097816;28;20047;-69
2021/12/18 07:59:30;;;;;;;2.35;1.10;;;8.10;99.90;;;;;;5098218;28;20035;-70
2021/12/18 08:01:55;;;;;;;3.05;1.73;;;8.40;99.90;;;;;;5115943;28;20043;-70
2021/12/18 08:04:21;;;;;;;8.32;3.00;;;8.40;99.90;;;;;;5115024;28;20108;-70
2021/12/18 08:06:47;;;;;;;6.28;1.95;;;8.20;99.90;;;;;;5097737;28;20134;-70
2021/12/18 08:09:13;;;;;;;2.55;1.10;;;8.50;99.90;;;;;;5064539;28;20051;-70
2021/12/18 08:11:38;;;;;;;4.63;1.17;;;8.20;99.90;;;;;;5097905;28;20059;-70
2021/12/18 08:14:04;;;;;;;3.63;1.15;;;8.20;99.90;;;;;;5115855;28;20046;-70
2021/12/18 08:16:30;;;;;;;2.78;1.15;;;8.20;99.90;;;;;;5094039;28;20120;-70
2021/12/18 08:18:56;;;;;;;4.82;1.50;;;8.40;99.90;;;;;;5094703;28;20131;-70
2021/12/18 08:21:21;;;;;;;2.65;1.77;;;8.50;99.90;;;;;;5094588;28;20059;-70
2021/12/18 08:23:47;;;;;;;4.50;1.63;;;9.00;99.90;;;;;;5095784;28;20077;-70
2021/12/18 08:26:13;;;;;;;4.07;1.75;;;8.90;99.90;;;;;;5094188;28;20051;-70
2021/12/18 08:28:39;;;;;;;6.47;1.30;;;8.30;99.90;;;;;;5094876;28;20101;-70
2021/12/18 08:31:04;;;;;;;4.38;1.52;;;8.50;99.90;;;;;;5094050;28;20105;-69
2021/12/18 08:33:30;;;;;;;3.88;1.20;;;8.40;99.90;;;;;;5095061;28;20044;-69
2021/12/18 08:35:56;;;;;;;4.72;1.30;;;8.40;99.90;;;;;;5094033;28;20058;-70
2021/12/18 08:38:22;;;;;;;4.75;1.40;;;8.50;99.90;;;;;;5095035;28;20040;-69
2021/12/18 08:40:49;;;;;;;3.97;1.70;;;8.40;99.90;;;;;;5093510;28;20502;-69
2021/12/18 08:43:15;;;;;;;6.82;2.22;;;8.40;99.90;;;;;;5093922;28;20447;-70
2021/12/18 08:45:40;;;;;;;5.22;2.05;;;8.40;99.90;;;;;;5093897;28;20048;-70
2021/12/18 08:48:06;;;;;;;5.15;1.77;;;8.50;99.90;;;;;;5094821;28;20043;-70
2021/12/18 08:50:32;;;;;;;5.13;1.98;;;8.60;99.90;;;;;;5093541;28;20165;-70
2021/12/18 08:52:58;;;;;;;5.15;1.67;;;8.50;99.90;;;;;;5093658;28;20124;-70
2021/12/18 08:55:24;;;;;;;5.50;1.80;;;8.50;99.90;;;;;;5093505;28;20059;-70
2021/12/18 08:57:50;;;;;;;7.18;2.00;;;8.50;99.90;;;;;;5094387;28;20123;-70
2021/12/18 09:00:21;;;;;;;5.25;2.03;;;8.70;99.90;;;;;;5093357;28;20399;-70
2021/12/18 09:02:51;;;;;;;9.52;5.70;;;8.50;99.90;;;;;;5093527;28;20052;-72
2021/12/18 09:05:17;;;;;;;5.03;1.30;;;8.70;99.90;;;;;;5094580;28;20040;-68
2021/12/18 09:07:43;;;;;;;3.88;1.70;;;8.60;99.90;;;;;;5093305;28;20476;-68
2021/12/18 09:10:10;;;;;;;6.28;1.83;;;8.50;99.90;;;;;;5076720;28;20048;-68
2021/12/18 09:12:36;;;;;;;7.30;1.50;;;8.60;99.90;;;;;;5094490;28;20105;-68
2021/12/18 09:15:02;;;;;;;10.15;1.70;;;8.60;99.90;;;;;;5093274;28;20043;-68
2021/12/18 09:17:28;;;;;;;3.92;1.27;;;8.50;99.90;;;;;;5109049;28;20052;-69
2021/12/18 09:19:54;;;;;;;6.05;1.73;;;8.60;99.90;;;;;;5114699;28;20048;-71
2021/12/18 09:22:20;;;;;;;5.15;1.80;;;8.60;99.90;;;;;;5096538;28;20088;-70
2021/12/18 09:24:46;;;;;;;4.13;1.27;;;8.60;99.90;;;;;;5114842;28;20047;-70
2021/12/18 09:27:12;;;;;;;8.00;1.38;;;8.50;99.90;;;;;;5114718;28;20507;-70
2021/12/18 09:29:37;;;;;;;4.70;1.17;;;8.60;99.90;;;;;;5114280;28;20139;-70
2021/12/18 09:32:04;;;;;;;4.43;1.15;;;8.50;99.90;;;;;;5114646;28;20079;-70
2021/12/18 09:34:30;;;;;;;4.47;1.20;;;8.60;99.90;;;;;;5114982;28;20043;-70
2021/12/18 09:36:57;;;;;;;4.72;1.10;;;8.70;99.90;;;;;;5114397;28;20097;-70
2021/12/18 09:39:23;;;;;;;3.35;1.23;;;8.70;99.90;;;;;;5114640;28;20123;-69
2021/12/18 09:41:50;;;;;;;3.47;1.17;;;8.50;99.90;;;;;;5115056;28;20032;-70
2021/12/18 09:44:47;;;;;;;2.78;1.17;;;8.60;99.90;;;;;;5114333;28;20051;-70
2021/12/18 09:47:13;;;;;;;3.97;1.10;;;8.60;99.90;;;;;;5095997;28;20432;-70
2021/12/18 09:49:39;;;;;;;6.05;2.03;;;8.60;99.90;;;;;;5114753;28;20083;-69
2021/12/18 09:52:05;;;;;;;5.97;1.80;;;8.70;99.90;;;;;;5114239;28;20126;-69
2021/12/18 09:54:31;;;;;;;8.98;2.50;;;8.70;99.90;;;;;;5114187;28;20476;-69
2021/12/18 09:56:57;;;;;;;6.43;2.30;;;8.70;99.90;;;;;;5113865;28;20411;-70
2021/12/18 09:59:23;;;;;;;5.50;2.10;;;8.70;99.90;;;;;;5096778;28;20040;-71
2021/12/18 10:01:49;;;;;;;7.43;1.73;;;8.70;99.90;;;;;;5096350;28;20528;-70
2021/12/18 10:04:35;;;;;;;4.80;1.15;;;8.80;99.90;;;;;;5114057;28;20044;-70
2021/12/18 10:07:19;;;;;;;5.40;0.73;;;8.80;99.90;;;;;;5114129;28;20044;-70
2021/12/18 10:09:45;;;;;;;;;;;8.80;99.90;;;;;;5115336;28;20039;-70
2021/12/18 10:12:25;;;;;;;3.17;0.90;;;8.80;99.90;;;;;;5114075;28;20060;-70
2021/12/18 10:15:01;;;;;;;5.15;0.90;;;8.90;99.90;;;;;;5114571;28;20382;-70
2021/12/18 10:17:31;;;;;;;3.42;0.75;;;8.90;99.90;;;;;;5113712;28;20135;-71
2021/12/18 10:20:09;;;;;;;6.00;1.23;;;8.90;99.90;;;;;;5114017;28;20077;-70
2021/12/18 10:22:36;;;;;;;5.00;0.80;;;8.90;99.90;;;;;;5113803;28;20046;-71
2021/12/18 10:25:06;;;;;;;2.92;0.93;;;8.90;99.90;;;;;;5095694;28;20140;-70
2021/12/18 10:27:32;;;;;;;6.85;2.00;;;8.90;99.90;;;;;;5114458;28;20056;-71
2021/12/18 10:30:28;;;;;;;4.97;0.95;;;8.90;99.90;;;;;;5100009;28;20082;-71
2021/12/18 10:32:56;;;;;;;4.22;0.88;;;9.00;99.90;;;;;;5100455;28;20430;-71
2021/12/18 10:35:35;;;;;;;4.85;0.80;;;8.90;99.90;;;;;;5117951;28;20055;-71
2021/12/18 10:38:00;;;;;;;5.40;1.10;;;9.00;99.90;;;;;;5117934;28;20040;-70
2021/12/18 10:40:26;;;;;;;7.82;1.02;;;8.70;99.90;;;;;;5117748;28;20054;-70
2021/12/18 10:42:53;;;;;;;7.00;1.17;;;9.00;99.90;;;;;;5083311;28;20138;-70
2021/12/18 10:45:24;;;;;;;4.00;1.00;;;9.10;99.90;;;;;;5114461;28;20054;-70
2021/12/18 10:48:03;;;;;;;8.98;1.35;;;9.00;99.90;;;;;;5114625;28;20069;-70
2021/12/18 10:50:36;;;;;;;8.95;1.20;;;9.10;99.90;;;;;;5114170;28;20121;-69
2021/12/18 10:53:06;;;;;;;3.05;1.10;;;9.00;99.90;;;;;;5113540;28;20055;-70
2021/12/18 10:55:58;;;;;;;9.00;1.40;;;9.10;99.90;;;;;;5114344;28;20044;-69
2021/12/18 10:58:30;;;;;;;3.55;1.30;;;9.00;99.90;;;;;;5103441;28;20055;-71
2021/12/18 11:00:58;;;;;;;11.30;1.70;;;9.10;99.90;;;;;;5095847;28;20149;-71
2021/12/18 11:03:31;;;;;;;4.95;1.35;;;9.00;99.90;;;;;;5114067;28;20497;-70
2021/12/18 11:06:05;;;;;;;6.20;1.45;;;9.10;99.90;;;;;;5114178;28;20040;-70
2021/12/18 11:08:33;;;;;;;7.60;1.55;;;9.10;99.90;;;;;;5095914;28;20047;-70
2021/12/18 11:13:50;;;;;;;9.02;1.98;;;9.30;99.90;;;;;;5113727;28;20051;-70
2021/12/18 11:16:20;;;;;;;8.48;1.77;;;9.20;99.90;;;;;;5113244;28;20101;-70
2021/12/18 11:18:46;;;;;;;8.68;1.77;;;9.10;99.90;;;;;;5114429;28;20059;-70
2021/12/18 11:21:13;;;;;;;7.85;1.52;;;9.10;99.90;;;;;;5115613;28;20079;-70
2021/12/18 11:23:51;;;;;;;6.22;1.80;;;9.50;99.90;;;;;;5115726;28;20055;-70
2021/12/18 11:26:20;;;;;;;5.97;2.13;;;9.20;99.90;;;;;;5115660;28;20061;-70
2021/12/18 11:28:50;;;;;;;7.07;1.90;;;8.10;99.90;;;;;;5098145;28;20044;-70
2021/12/18 11:31:16;;;;;;;5.78;1.35;;;9.10;99.90;;;;;;5099198;28;20413;-69
2021/12/18 11:33:42;;;;;;;4.18;1.05;;;9.10;99.90;;;;;;5098479;28;20136;-70
2021/12/18 11:36:09;;;;;;;4.13;1.10;;;9.30;99.90;;;;;;5116241;28;20047;-70
2021/12/18 11:38:41;;;;;;;3.03;1.13;;;9.10;99.90;;;;;;5116321;28;20051;-70
2021/12/18 11:41:17;;;;;;;4.95;1.42;;;9.20;99.90;;;;;;5115974;28;20047;-70
2021/12/18 11:43:45;;;;;;;4.32;0.82;;;9.20;99.90;;;;;;5117162;28;20051;-70
2021/12/18 11:46:30;;;;;;;5.68;1.00;;;9.10;99.90;;;;;;5116457;28;20083;-70
2021/12/18 11:49:03;;;;;;;4.32;1.30;;;9.20;99.90;;;;;;5116549;28;20047;-70
2021/12/18 11:51:30;;;;;;;5.57;1.52;;;9.20;99.90;;;;;;5116535;28;20078;-70
2021/12/18 11:53:56;;;;;;;4.90;1.70;;;9.20;99.90;;;;;;5116250;28;20052;-70
2021/12/18 11:56:22;;;;;;;7.50;1.73;;;9.40;99.90;;;;;;5116006;28;20088;-70
2021/12/18 11:58:49;;;;;;;5.50;1.30;;;9.10;99.90;;;;;;5115765;28;20424;-69
2021/12/18 12:01:25;;;;;;;5.97;1.17;;;9.20;99.90;;;;;;5113987;28;20122;-69
2021/12/18 12:03:50;;;;;;;5.38;1.35;;;9.20;99.90;;;;;;5112512;28;20486;-71
2021/12/18 12:06:24;;;;;;;6.10;1.42;;;9.20;99.90;;;;;;5112645;28;20118;-70
2021/12/18 12:09:09;;;;;;;8.10;2.22;;;9.60;99.90;;;;;;5113179;28;20385;-70
2021/12/18 12:11:51;;;;;;;5.85;1.05;;;9.20;99.90;;;;;;5094222;28;20035;-70
2021/12/18 12:14:20;;;;;;;4.88;1.45;;;9.20;99.90;;;;;;5112568;28;20043;-70
2021/12/18 12:16:45;;;;;;;7.07;1.73;;;9.20;99.90;;;;;;5077767;28;20043;-70
2021/12/18 12:19:16;;;;;;;3.95;1.20;;;9.30;99.90;;;;;;5095025;28;20047;-70
2021/12/18 12:21:50;;;;;;;6.72;1.50;;;9.30;99.90;;;;;;5094065;28;20039;-71
2021/12/18 12:24:21;;;;;;;5.38;1.10;;;9.30;99.90;;;;;;5077920;28;20126;-70
2021/12/18 12:26:49;;;;;;;4.63;1.40;;;9.20;99.90;;;;;;5077406;28;20053;-70
2021/12/18 12:29:16;;;;;;;5.57;1.17;;;9.00;99.90;;;;;;5111939;28;20173;-68
2021/12/18 12:31:55;;;;;;;5.72;1.20;;;9.20;99.90;;;;;;5112441;28;20050;-68
2021/12/18 12:34:23;;;;;;;3.70;1.10;;;9.40;99.90;;;;;;5112661;28;20131;-68
2021/12/18 12:36:57;;;;;;;4.22;1.10;;;9.30;99.90;;;;;;5094353;28;20046;-68
2021/12/18 12:39:25;;;;;;;4.28;1.40;;;10.30;99.90;;;;;;5112237;28;20047;-68
2021/12/18 12:41:52;;;;;;;8.23;1.52;;;9.30;99.90;;;;;;5111723;28;20039;-68
2021/12/18 12:44:32;;;;;;;8.25;1.55;;;9.30;99.90;;;;;;5113043;28;20046;-68
2021/12/18 12:47:15;;;;;;;5.20;1.10;;;9.30;99.90;;;;;;5112060;28;20093;-69
2021/12/18 12:49:43;;;;;;;2.63;1.02;;;9.30;99.90;;;;;;5111475;28;20048;-69
2021/12/18 12:52:14;;;;;;;5.78;1.20;;;9.30;99.90;;;;;;5111999;28;20220;-70
2021/12/18 12:54:52;;;;;;;6.28;1.63;;;9.30;99.90;;;;;;5112010;28;20054;-69
2021/12/18 12:57:25;;;;;;;3.75;1.10;;;9.40;99.90;;;;;;5111856;28;20079;-70
2021/12/18 12:59:53;;;;;;;6.30;1.30;;;9.40;99.90;;;;;;5093722;28;20047;-70
2021/12/18 13:02:19;;;;;;;5.72;1.10;;;9.30;99.90;;;;;;5111724;28;20349;-70
2021/12/18 13:04:44;;;;;;;6.32;1.38;;;9.30;99.90;;;;;;5112108;28;20122;-70
2021/12/18 13:07:10;;;;;;;4.35;1.35;;;9.30;99.90;;;;;;5092860;28;20459;-70
2021/12/18 13:09:45;;;;;;;4.43;0.90;;;9.30;99.90;;;;;;5111673;28;20044;-69
2021/12/18 13:12:12;;;;;;;8.93;1.60;;;9.30;99.90;;;;;;5093284;28;20047;-70
2021/12/18 13:14:44;;;;;;;8.07;1.77;;;9.30;99.90;;;;;;5093131;28;20047;-69
2021/12/18 13:17:27;;;;;;;7.72;1.90;;;10.60;99.90;;;;;;5111213;28;20055;-71
2021/12/18 13:20:00;;;;;;;6.72;2.00;;;9.30;99.90;;;;;;5111347;28;20408;-70
2021/12/18 13:22:32;;;;;;;4.18;1.48;;;9.30;99.90;;;;;;5076697;28;20038;-70
2021/12/18 13:25:11;;;;;;;5.22;1.30;;;8.90;99.90;;;;;;5111704;28;20031;-70
2021/12/18 13:27:40;;;;;;;6.93;1.42;;;9.50;99.90;;;;;;5111559;28;20089;-68
2021/12/18 13:30:21;;;;;;;3.28;1.25;;;9.30;99.90;;;;;;5112281;28;20112;-70
2021/12/18 13:32:55;;;;;;;4.43;1.10;;;9.30;99.90;;;;;;5112535;28;20498;-69
2021/12/18 13:35:23;;;;;;;4.75;1.00;;;9.20;99.90;;;;;;5080302;28;20055;-69
2021/12/18 13:38:11;;;;;;;4.45;1.27;;;9.20;99.90;;;;;;5096279;28;20065;-70
2021/12/18 13:40:46;;;;;;;5.00;1.20;;;9.20;99.90;;;;;;5114315;28;20048;-69